»·PEaware :: N951MC KPVF-KSAC

N951MC :: KPVF-KSAC

FLIGHT INFORMATION

Flight Status: Arrived
Operator: Privately registered:
United States
More flights under this callsign
Pilot: Matt C. (2632)
Aircraft: CESSNA 172 SKYHAWK
(C172)
More flights by this aircraft type
Origin: KPVF Placerville
United States
Destination: KSAC Sacramento Executive
United States
More flights between these airports :: More routes between these airports
Route: COLOM V6
File this flight plan on PilotEdge
Remarks: ODP
Altitude:
(Current/Filed)
6,000ft
Speed:
(Current/Filed)
110kts
Departed: 10-Nov-18 08:24 PM
Arrived: 10-Nov-18 10:09 PM
Distance/Time
Traveled:
37nm/1:44
Distance/Time
To Go:
Arrived

Flight Plot

Page will automatically refresh every two minutes.

Flight plan parsing failed; only flown route is shown


Map Options




Map Legend


Flown Route
Filed Route
Departure Airport
Arrival Airport
Navaid (VOR, NDB)
Fix

Horizontal Profiles

Position Reports

Time Latitude Longitude Heading Altitude Ground
Speed
10-Nov-18 20:18 38.726758 -120.746989 242 2586ft 0kts
10-Nov-18 20:19 38.726758 -120.746989 242 2586ft 0kts
10-Nov-18 20:20 38.726758 -120.746989 242 2586ft 0kts
10-Nov-18 20:21 38.726758 -120.746989 242 2586ft 0kts
10-Nov-18 20:22 38.726758 -120.746989 242 2586ft 0kts
10-Nov-18 20:23 38.726755 -120.746996 240 2586ft 3kts
10-Nov-18 20:24 38.726613 -120.747347 238 2586ft 0kts
10-Nov-18 20:25 38.726613 -120.747348 238 2586ft 0kts
10-Nov-18 20:26 38.726613 -120.747348 238 2586ft 0kts
10-Nov-18 20:27 38.723094 -120.762001 278 2847ft 65kts
10-Nov-18 20:28 38.723094 -120.762001 278 2847ft 65kts
10-Nov-18 20:29 38.723094 -120.762001 278 2847ft 65kts
10-Nov-18 20:30 38.723094 -120.762001 278 2847ft 65kts
10-Nov-18 20:31 38.723094 -120.762001 278 2847ft 65kts
10-Nov-18 20:32 38.723094 -120.762001 278 2847ft 65kts
10-Nov-18 20:33 38.723094 -120.762001 278 2847ft 65kts
10-Nov-18 20:34 38.723510 -120.767176 294 2857ft 79kts
10-Nov-18 20:35 38.713983 -120.790959 248 3352ft 75kts
10-Nov-18 20:36 38.701924 -120.815314 235 3765ft 79kts
10-Nov-18 20:37 38.693625 -120.830392 243 4019ft 82kts
10-Nov-18 20:38 38.687146 -120.844723 251 4287ft 79kts
10-Nov-18 20:39 38.687146 -120.844723 251 4287ft 79kts
10-Nov-18 20:40 38.684426 -120.859750 261 4313ft 63kts
10-Nov-18 20:41 38.686496 -120.885355 344 3740ft 68kts
10-Nov-18 20:42 38.692913 -120.884003 342 3316ft 53kts
10-Nov-18 20:50 38.726758 -120.746991 242 2586ft 0kts
10-Nov-18 20:51 38.725034 -120.751267 23 2588ft 30kts
10-Nov-18 20:52 38.726758 -120.746989 242 2586ft 0kts
10-Nov-18 20:53 38.726758 -120.746989 242 2586ft 0kts
10-Nov-18 20:54 38.726758 -120.746989 242 2586ft 0kts
10-Nov-18 20:55 38.726758 -120.746989 242 2586ft 0kts
10-Nov-18 20:56 38.726758 -120.746989 242 2586ft 0kts
10-Nov-18 20:57 38.725665 -120.750783 279 2587ft 47kts
10-Nov-18 20:58 38.726758 -120.746989 242 2586ft 0kts
10-Nov-18 20:59 38.725261 -120.750867 249 2586ft 57kts
10-Nov-18 21:00 38.726758 -120.746989 242 2586ft 0kts
10-Nov-18 21:01 38.726758 -120.746989 242 2586ft 0kts
10-Nov-18 21:02 38.726758 -120.746989 242 2586ft 0kts
10-Nov-18 21:03 38.726758 -120.746990 242 2586ft 0kts
10-Nov-18 21:04 38.726758 -120.746990 242 2586ft 0kts
10-Nov-18 21:05 38.726758 -120.746990 242 2586ft 0kts
10-Nov-18 21:06 38.726758 -120.746990 242 2586ft 0kts
10-Nov-18 21:07 38.726758 -120.746990 242 2586ft 0kts
10-Nov-18 21:08 38.726758 -120.746990 242 2586ft 0kts
10-Nov-18 21:09 38.726758 -120.746990 242 2586ft 0kts
10-Nov-18 21:10 38.726758 -120.746990 242 2586ft 0kts
10-Nov-18 21:11 38.726758 -120.746990 242 2586ft 0kts
10-Nov-18 21:12 38.726758 -120.746990 242 2586ft 0kts
10-Nov-18 21:13 38.726758 -120.746990 242 2586ft 0kts
10-Nov-18 21:14 38.726758 -120.746990 242 2586ft 0kts
10-Nov-18 21:15 38.726314 -120.748042 244 2586ft 35kts
10-Nov-18 21:16 38.716216 -120.761365 186 2900ft 74kts
10-Nov-18 21:17 38.726758 -120.746990 242 2586ft 0kts
10-Nov-18 21:18 38.726758 -120.746990 242 2586ft 0kts
10-Nov-18 21:19 38.726758 -120.746990 242 2586ft 0kts
10-Nov-18 21:20 38.726758 -120.746991 242 2586ft 0kts
10-Nov-18 21:21 38.726118 -120.748570 241 2586ft 43kts
10-Nov-18 21:22 38.717301 -120.771902 237 3079ft 80kts
10-Nov-18 21:23 38.705292 -120.792962 240 3351ft 92kts
10-Nov-18 21:24 38.701553 -120.804817 247 3718ft 74kts
10-Nov-18 21:25 38.693672 -120.831278 244 4322ft 80kts
10-Nov-18 21:26 38.683944 -120.857180 240 4910ft 78kts
10-Nov-18 21:27 38.692166 -120.879339 358 5378ft 92kts
10-Nov-18 21:28 38.702236 -120.854315 79 5876ft 87kts
10-Nov-18 21:29 38.712919 -120.823298 59 6050ft 110kts
10-Nov-18 21:30 38.731850 -120.790721 55 6019ft 117kts
10-Nov-18 21:31 38.744032 -120.756471 5 5943ft 116kts
10-Nov-18 21:32 38.768741 -120.779530 323 6072ft 111kts
10-Nov-18 21:33 38.784336 -120.813169 292 6120ft 112kts
10-Nov-18 21:34 38.806163 -120.842214 321 6069ft 120kts
10-Nov-18 21:35 38.829841 -120.871928 306 6002ft 119kts
10-Nov-18 21:36 38.819582 -120.906217 219 5896ft 111kts
10-Nov-18 21:37 38.799738 -120.935589 228 5954ft 110kts
10-Nov-18 21:38 38.779493 -120.965204 225 5975ft 110kts
10-Nov-18 21:39 38.761870 -120.997258 238 5989ft 111kts
10-Nov-18 21:40 38.746933 -121.031854 239 6007ft 110kts
10-Nov-18 21:41 38.731657 -121.066315 237 6021ft 111kts
10-Nov-18 21:42 38.714353 -121.098870 226 6016ft 111kts
10-Nov-18 21:43 38.694213 -121.128971 228 6012ft 111kts
10-Nov-18 21:44 38.672712 -121.157785 225 5935ft 115kts
10-Nov-18 21:45 38.651587 -121.186446 225 6011ft 109kts
10-Nov-18 21:46 38.630527 -121.214896 225 6009ft 110kts
10-Nov-18 21:47 38.609209 -121.243556 224 6009ft 111kts
10-Nov-18 21:48 38.587123 -121.273058 224 5768ft 122kts
10-Nov-18 21:49 38.562891 -121.305144 224 5288ft 127kts
10-Nov-18 21:50 38.538133 -121.337697 223 4808ft 127kts
10-Nov-18 21:51 38.519493 -121.361428 222 4483ft 126kts
10-Nov-18 21:52 38.507823 -121.375577 221 4296ft 126kts
10-Nov-18 21:53 38.507129 -121.376397 221 4285ft 126kts
10-Nov-18 21:54 38.506657 -121.376953 221 4279ft 125kts
10-Nov-18 21:55 38.504031 -121.380028 220 4366ft 113kts
10-Nov-18 21:56 38.503788 -121.380311 220 4382ft 112kts
10-Nov-18 21:57 38.503702 -121.380411 220 4389ft 111kts
10-Nov-18 21:58 38.482413 -121.403382 216 4221ft 119kts
10-Nov-18 21:59 38.455498 -121.433374 223 3570ft 131kts
10-Nov-18 22:00 38.430140 -121.466290 224 3037ft 131kts
10-Nov-18 22:01 38.403953 -121.499963 223 2311ft 135kts
10-Nov-18 22:02 38.378030 -121.531479 221 1975ft 124kts
10-Nov-18 22:03 38.351342 -121.561412 218 1540ft 127kts
10-Nov-18 22:04 38.339037 -121.596110 300 1533ft 123kts
10-Nov-18 22:05 38.370658 -121.598709 14 1513ft 123kts
10-Nov-18 22:06 38.402964 -121.585263 30 1553ft 119kts
10-Nov-18 22:07 38.426261 -121.569104 30 1419ft 81kts
10-Nov-18 22:08 38.440597 -121.554976 37 1469ft 77kts
10-Nov-18 22:09 38.462346 -121.536679 37 1146ft 83kts
10-Nov-18 22:10 38.482465 -121.519686 40 555ft 87kts
10-Nov-18 22:11 38.502060 -121.503387 31 137ft 74kts
10-Nov-18 22:12 38.509328 -121.497128 40 27ft 13kts

Navigation Log

Ident Type
Flight plan parsing failed, navigation log unavailable